Terminal Aerodrome Forecast
Issued by NWS New Orleans/Baton Rouge, LA

Home | Current Version | Previous Version | Text Only | Print | Product List | Glossary On
Versions: 1 2 3 4 5 6 7 8 9 10 11 12
000
FTUS44 KLIX 031141
TAFBTR
TAF
KBTR 031141Z 0312/0412 VRB03KT P6SM FEW090
      TEMPO 0312/0313 5SM BR
     FM031600 14006KT P6SM SCT060
     FM040200 16005KT P6SM SCT250=

USA.gov is the U.S. government's official web portal to all federal, state and local government web resources and services.